createdAt,value
2023-03-12T00:01:21.062Z,-0.10
2023-03-12T00:06:18.768Z,-0.10
2023-03-12T00:11:18.320Z,0.05
2023-03-12T00:16:15.845Z,0.16
2023-03-12T00:21:12.334Z,0.26
2023-03-12T00:26:12.148Z,0.27
2023-03-12T00:31:27.463Z,0.32
2023-03-12T00:36:26.986Z,0.25
2023-03-12T00:41:24.554Z,0.17
2023-03-12T00:46:21.981Z,0.03
2023-03-12T00:51:19.157Z,0.02
2023-03-12T00:56:15.622Z,-0.02
2023-03-12T01:01:12.499Z,-0.09
2023-03-12T01:06:09.334Z,-0.07
2023-03-12T01:11:05.806Z,0.11
2023-03-12T01:16:02.404Z,0.17
2023-03-12T01:20:59.339Z,0.25
2023-03-12T01:25:55.841Z,0.14
2023-03-12T01:30:52.511Z,0.23
2023-03-12T01:35:49.066Z,0.29
2023-03-12T01:40:45.609Z,0.27
2023-03-12T01:46:01.075Z,0.25
2023-03-12T01:50:59.480Z,0.31
2023-03-12T01:55:57.311Z,0.34
2023-03-12T02:00:54.785Z,0.31
2023-03-12T02:06:04.639Z,0.34
2023-03-12T02:11:01.042Z,0.33
2023-03-12T02:15:57.503Z,0.29
2023-03-12T02:21:18.800Z,0.24
2023-03-12T02:26:16.509Z,0.33
2023-03-12T02:31:17.628Z,0.43
2023-03-12T02:36:14.243Z,0.51
2023-03-12T02:41:22.456Z,0.39
2023-03-12T02:46:19.055Z,0.41
2023-03-12T02:51:15.537Z,0.54
2023-03-12T02:56:12.053Z,0.66
2023-03-12T03:01:08.462Z,0.66
2023-03-12T03:06:05.078Z,0.49
2023-03-12T03:11:02.980Z,0.20
2023-03-12T03:16:01.932Z,0.07
2023-03-12T03:21:04.970Z,0.08
2023-03-12T03:26:01.605Z,0.01
2023-03-12T03:31:01.311Z,-0.19
2023-03-12T03:35:59.565Z,-0.24
2023-03-12T03:40:56.110Z,-0.31
2023-03-12T03:46:00.269Z,-0.33
2023-03-12T03:51:01.248Z,-0.38
2023-03-12T03:55:57.729Z,-0.27
2023-03-12T04:00:54.250Z,-0.24
2023-03-12T04:05:55.987Z,-0.19
2023-03-12T04:10:52.651Z,-0.33
2023-03-12T04:15:51.743Z,-0.53
2023-03-12T04:20:48.274Z,-0.53
2023-03-12T04:25:44.643Z,-0.65
2023-03-12T04:30:41.098Z,-0.71
2023-03-12T04:35:37.560Z,-0.80
2023-03-12T04:40:34.173Z,-0.89
2023-03-12T04:45:30.604Z,-0.94
2023-03-12T04:50:27.029Z,-0.89
2023-03-12T04:55:23.513Z,-0.84
2023-03-12T05:00:20.102Z,-0.86
2023-03-12T05:05:16.494Z,-0.87
2023-03-12T05:10:12.984Z,-0.85
2023-03-12T05:15:09.871Z,-0.79
2023-03-12T05:20:06.704Z,-0.80
2023-03-12T05:25:03.830Z,-0.73
2023-03-12T05:30:00.224Z,-0.83
2023-03-12T05:34:56.615Z,-0.84
2023-03-12T05:39:54.567Z,-0.81
2023-03-12T05:44:51.433Z,-0.69
2023-03-12T05:49:47.821Z,-0.69
2023-03-12T05:54:44.190Z,-0.64
2023-03-12T05:59:40.563Z,-0.64
2023-03-12T06:04:36.978Z,-0.58
2023-03-12T06:09:33.450Z,-0.60
2023-03-12T06:14:29.987Z,-0.56
2023-03-12T06:19:26.434Z,-0.54
2023-03-12T06:24:22.838Z,-0.54
2023-03-12T06:29:19.267Z,-0.66
2023-03-12T06:34:16.789Z,-0.54
2023-03-12T06:39:13.284Z,-0.55
2023-03-12T06:44:10.820Z,-0.52
2023-03-12T06:49:07.457Z,-0.50
2023-03-12T06:54:04.352Z,-0.51
2023-03-12T06:59:00.845Z,-0.47
2023-03-12T07:03:57.294Z,-0.41
2023-03-12T07:08:53.730Z,-0.28
2023-03-12T07:13:51.478Z,-0.19
2023-03-12T07:18:48.195Z,0.01
2023-03-12T07:23:44.576Z,-0.03
2023-03-12T07:28:41.559Z,0.13
2023-03-12T07:33:38.828Z,0.22
2023-03-12T07:38:35.309Z,0.38
2023-03-12T07:43:31.955Z,0.40
2023-03-12T07:48:28.493Z,0.47
2023-03-12T07:53:24.928Z,0.51
2023-03-12T07:58:21.453Z,0.62
2023-03-12T08:03:18.158Z,0.82
2023-03-12T08:08:14.728Z,0.88
2023-03-12T08:13:11.231Z,1.01
2023-03-12T08:18:07.770Z,1.20
2023-03-12T08:23:04.203Z,1.37
2023-03-12T08:28:00.588Z,1.67
2023-03-12T08:32:58.083Z,1.91
2023-03-12T08:37:56.788Z,1.86
2023-03-12T08:42:53.256Z,1.96
2023-03-12T08:47:50.235Z,1.96
2023-03-12T08:52:46.629Z,2.16
2023-03-12T08:57:43.407Z,2.35
2023-03-12T09:02:39.974Z,2.44
2023-03-12T09:07:36.588Z,2.24
2023-03-12T09:12:33.126Z,2.19
2023-03-12T09:17:30.457Z,2.19
2023-03-12T09:22:29.429Z,2.40
2023-03-12T09:27:25.960Z,2.56
2023-03-12T09:32:23.162Z,2.54
2023-03-12T09:37:23.590Z,2.59
2023-03-12T09:42:46.279Z,2.66
2023-03-12T09:47:55.546Z,2.95
2023-03-12T09:53:25.969Z,3.12
2023-03-12T09:58:30.747Z,3.34
2023-03-12T10:03:46.546Z,3.53
2023-03-12T10:08:56.407Z,3.53
2023-03-12T10:14:24.066Z,3.87
2023-03-12T10:19:35.705Z,4.29
2023-03-12T10:24:52.802Z,4.48
2023-03-12T10:29:57.921Z,4.71
2023-03-12T10:35:04.240Z,5.01
2023-03-12T10:40:00.873Z,4.94
2023-03-12T10:45:10.846Z,4.61
2023-03-12T10:50:16.313Z,4.54
2023-03-12T10:55:22.064Z,4.46
2023-03-12T11:00:30.431Z,4.20
2023-03-12T11:05:29.651Z,4.15
2023-03-12T11:10:39.102Z,4.15
2023-03-12T11:15:41.484Z,4.20
2023-03-12T11:20:37.917Z,4.06
2023-03-12T11:25:34.371Z,3.88
2023-03-12T11:30:39.208Z,3.74
2023-03-12T11:36:07.007Z,3.65
2023-03-12T11:41:28.194Z,3.80
2023-03-12T11:46:43.784Z,4.22
2023-03-12T11:51:58.419Z,4.18
2023-03-12T11:57:40.692Z,4.00
2023-03-12T12:02:48.022Z,3.90
2023-03-12T12:08:03.019Z,3.92
2023-03-12T12:13:08.747Z,3.84
2023-03-12T12:18:23.556Z,3.90
2023-03-12T12:23:30.737Z,3.92
2023-03-12T12:28:36.269Z,3.93
2023-03-12T12:33:35.316Z,3.80
2023-03-12T12:38:55.117Z,3.72
2023-03-12T12:44:14.142Z,3.74
2023-03-12T12:49:24.386Z,3.77
2023-03-12T12:54:46.248Z,3.79
2023-03-12T13:00:07.299Z,3.67
2023-03-12T13:05:03.918Z,3.68
2023-03-12T13:10:06.849Z,3.84
2023-03-12T13:15:29.526Z,3.36
2023-03-12T13:20:37.414Z,2.97
2023-03-12T13:26:01.451Z,2.85
2023-03-12T13:31:23.697Z,3.01
2023-03-12T13:36:28.342Z,3.23
2023-03-12T13:41:31.921Z,3.10
2023-03-12T13:46:35.965Z,3.04
2023-03-12T13:51:32.877Z,3.09
2023-03-12T13:56:32.372Z,3.03
2023-03-12T14:01:38.047Z,2.86
2023-03-12T14:07:06.309Z,2.73
2023-03-12T14:12:21.740Z,2.42
2023-03-12T14:17:24.274Z,2.50
2023-03-12T14:22:23.882Z,2.33
2023-03-12T14:27:30.054Z,2.29
2023-03-12T14:32:33.415Z,2.26
2023-03-12T14:37:38.288Z,2.20
2023-03-12T14:42:36.210Z,2.17
2023-03-12T14:47:58.780Z,2.21
2023-03-12T14:53:10.395Z,2.13
2023-03-12T14:58:17.163Z,2.03
2023-03-12T15:03:16.588Z,1.97
2023-03-12T15:08:13.710Z,1.91
2023-03-12T15:13:12.957Z,1.83
2023-03-12T15:18:19.585Z,1.79
2023-03-12T15:23:18.503Z,1.56
2023-03-12T15:28:14.850Z,1.60
2023-03-12T15:33:24.076Z,1.32
2023-03-12T15:38:23.184Z,1.28
2023-03-12T15:43:21.626Z,1.32
2023-03-12T15:48:32.178Z,1.33
2023-03-12T15:53:32.279Z,1.31
2023-03-12T15:58:32.076Z,1.38
2023-03-12T16:03:28.482Z,1.39
2023-03-12T16:08:36.247Z,1.34
2023-03-12T16:13:33.098Z,1.31
2023-03-12T16:18:29.517Z,1.25
2023-03-12T16:23:26.184Z,1.22
2023-03-12T16:28:23.421Z,1.30
2023-03-12T16:33:22.755Z,1.39
2023-03-12T16:38:19.220Z,1.41
2023-03-12T16:43:19.546Z,1.40
2023-03-12T16:48:18.923Z,1.43
2023-03-12T16:53:16.377Z,1.39
2023-03-12T16:58:15.661Z,1.42
2023-03-12T17:03:19.339Z,1.39
2023-03-12T17:08:16.200Z,1.43
2023-03-12T17:13:19.410Z,1.29
2023-03-12T17:18:16.941Z,1.39
2023-03-12T17:23:14.103Z,1.35
2023-03-12T17:28:11.175Z,1.42
2023-03-12T17:33:12.841Z,1.51
2023-03-12T17:38:10.210Z,1.59
2023-03-12T17:43:06.774Z,1.61
2023-03-12T17:48:04.241Z,1.61
2023-03-12T17:53:00.898Z,1.69
2023-03-12T17:57:57.675Z,1.79
2023-03-12T18:02:57.229Z,1.79
2023-03-12T18:07:54.024Z,1.87
2023-03-12T18:12:50.956Z,1.94
2023-03-12T18:17:51.918Z,1.98
2023-03-12T18:22:48.612Z,2.04
2023-03-12T18:27:45.426Z,2.06
2023-03-12T18:32:41.937Z,2.16
2023-03-12T18:37:38.511Z,2.27
2023-03-12T18:42:34.914Z,2.37
2023-03-12T18:47:32.743Z,2.50
2023-03-12T18:52:29.133Z,2.68
2023-03-12T18:57:25.554Z,2.92
2023-03-12T19:02:23.715Z,3.39
2023-03-12T19:07:20.321Z,3.56
2023-03-12T19:12:16.695Z,3.76
2023-03-12T19:17:13.100Z,3.87
2023-03-12T19:22:09.597Z,3.98
2023-03-12T19:27:06.153Z,4.11
2023-03-12T19:32:02.797Z,4.25
2023-03-12T19:36:59.269Z,4.34
2023-03-12T19:41:59.080Z,4.45
2023-03-12T19:46:55.568Z,4.54
2023-03-12T19:51:51.998Z,4.63
2023-03-12T19:56:48.476Z,4.71
2023-03-12T20:01:44.920Z,4.75
2023-03-12T20:06:41.306Z,4.89
2023-03-12T20:11:37.869Z,4.93
2023-03-12T20:16:34.425Z,4.98
2023-03-12T20:21:30.940Z,5.04
2023-03-12T20:26:27.743Z,5.08
2023-03-12T20:31:24.259Z,5.07
2023-03-12T20:36:20.815Z,5.08
2023-03-12T20:41:17.584Z,5.12
2023-03-12T20:46:14.362Z,5.10
2023-03-12T20:51:10.842Z,5.12
2023-03-12T20:56:07.831Z,5.21
2023-03-12T21:01:05.511Z,5.25
2023-03-12T21:06:03.090Z,5.27
2023-03-12T21:10:59.688Z,5.23
2023-03-12T21:15:56.111Z,5.30
2023-03-12T21:20:52.483Z,5.40
2023-03-12T21:25:56.916Z,5.44
2023-03-12T21:30:53.429Z,5.46
2023-03-12T21:35:49.988Z,5.54
2023-03-12T21:40:46.467Z,5.57
2023-03-12T21:45:42.908Z,5.62
2023-03-12T21:50:39.297Z,5.66
2023-03-12T21:55:35.776Z,5.67
2023-03-12T22:00:32.409Z,5.63
2023-03-12T22:05:28.816Z,5.66
2023-03-12T22:10:25.253Z,5.67
2023-03-12T22:15:21.692Z,5.63
2023-03-12T22:20:18.143Z,5.65
2023-03-12T22:25:14.589Z,5.70
2023-03-12T22:30:13.090Z,5.78
2023-03-12T22:35:09.705Z,5.85
2023-03-12T22:40:07.161Z,5.87
2023-03-12T22:45:03.917Z,5.88
2023-03-12T22:50:00.386Z,5.93
2023-03-12T22:54:56.857Z,5.94
2023-03-12T22:59:53.295Z,5.98
2023-03-12T23:04:49.772Z,6.01
2023-03-12T23:09:47.383Z,6.00
2023-03-12T23:14:43.947Z,6.02
2023-03-12T23:19:42.590Z,6.08
2023-03-12T23:24:39.219Z,6.11
2023-03-12T23:29:35.639Z,6.21
2023-03-12T23:34:33.844Z,6.20
2023-03-12T23:39:30.826Z,6.24
2023-03-12T23:44:27.261Z,6.23
2023-03-12T23:49:23.813Z,6.22
2023-03-12T23:54:20.191Z,6.31
2023-03-12T23:59:16.569Z,6.31
